createdAt,value
2022-11-12T00:02:40.996Z,8.70
2022-11-12T00:05:44.672Z,7.80
2022-11-12T00:08:47.297Z,8.33
2022-11-12T00:11:49.908Z,8.60
2022-11-12T00:14:52.550Z,8.40
2022-11-12T00:17:56.585Z,8.73
2022-11-12T00:20:59.196Z,9.27
2022-11-12T00:24:01.946Z,9.10
2022-11-12T00:27:04.605Z,10.10
2022-11-12T00:30:08.651Z,10.73
2022-11-12T00:33:12.615Z,11.13
2022-11-12T00:36:15.277Z,10.40
2022-11-12T00:39:17.900Z,10.43
2022-11-12T00:42:20.522Z,9.50
2022-11-12T00:45:23.271Z,9.50
2022-11-12T00:48:27.605Z,10.10
2022-11-12T00:51:30.419Z,8.90
2022-11-12T00:54:33.141Z,9.80
2022-11-12T00:57:35.778Z,9.17
2022-11-12T01:00:38.481Z,8.67
2022-11-12T01:03:43.070Z,9.63
2022-11-12T01:06:45.824Z,7.93
2022-11-12T01:09:48.465Z,8.90
2022-11-12T01:12:51.138Z,9.80
2022-11-12T01:15:53.763Z,8.73
2022-11-12T01:18:59.522Z,8.67
2022-11-12T01:22:02.145Z,8.70
2022-11-12T01:25:05.745Z,8.53
2022-11-12T01:28:08.376Z,8.87
2022-11-12T01:31:12.795Z,9.03
2022-11-12T01:34:16.842Z,8.53
2022-11-12T01:37:19.532Z,8.70
2022-11-12T01:40:22.174Z,8.20
2022-11-12T01:43:24.823Z,8.33
2022-11-12T01:46:30.896Z,8.17
2022-11-12T01:49:46.092Z,8.33
2022-11-12T01:52:56.165Z,8.10
2022-11-12T01:56:00.048Z,8.23
2022-11-12T01:59:06.132Z,8.00
2022-11-12T02:02:09.692Z,7.60
2022-11-12T02:05:14.991Z,7.80
2022-11-12T02:08:18.293Z,8.03
2022-11-12T02:11:22.321Z,7.50
2022-11-12T02:14:24.948Z,7.67
2022-11-12T02:17:27.639Z,9.10
2022-11-12T02:20:36.006Z,7.73
2022-11-12T02:23:39.951Z,7.30
2022-11-12T02:26:45.925Z,7.97
2022-11-12T02:29:48.572Z,8.13
2022-11-12T02:32:51.205Z,7.60
2022-11-12T02:35:53.872Z,8.17
2022-11-12T02:38:58.715Z,7.90
2022-11-12T02:42:01.371Z,7.50
2022-11-12T02:45:04.530Z,7.50
2022-11-12T02:48:07.530Z,7.73
2022-11-12T02:51:10.161Z,7.70
2022-11-12T02:54:14.139Z,8.17
2022-11-12T02:57:16.775Z,8.13
2022-11-12T03:00:19.606Z,7.07
2022-11-12T03:03:22.407Z,7.50
2022-11-12T03:06:25.016Z,7.43
2022-11-12T03:09:29.048Z,7.40
2022-11-12T03:12:31.712Z,7.07
2022-11-12T03:15:34.337Z,7.03
2022-11-12T03:18:37.603Z,7.30
2022-11-12T03:21:40.207Z,8.10
2022-11-12T03:24:44.185Z,8.07
2022-11-12T03:27:46.846Z,8.70
2022-11-12T03:30:49.924Z,8.30
2022-11-12T03:33:52.541Z,8.47
2022-11-12T03:36:55.143Z,7.83
2022-11-12T03:39:59.141Z,8.27
2022-11-12T03:43:01.835Z,8.00
2022-11-12T03:46:04.561Z,8.33
2022-11-12T03:49:07.149Z,7.97
2022-11-12T03:52:09.766Z,8.23
2022-11-12T03:55:14.166Z,8.73
2022-11-12T03:58:16.804Z,8.43
2022-11-12T04:01:19.423Z,8.50
2022-11-12T04:04:22.065Z,7.50
2022-11-12T04:07:42.433Z,9.40
2022-11-12T04:10:46.476Z,8.03
2022-11-12T04:13:49.070Z,8.60
2022-11-12T04:17:09.096Z,8.60
2022-11-12T04:20:29.372Z,8.80
2022-11-12T04:23:31.983Z,8.23
2022-11-12T04:26:34.969Z,8.13
2022-11-12T04:29:55.213Z,7.67
2022-11-12T04:32:58.406Z,8.20
2022-11-12T04:36:01.063Z,7.53
2022-11-12T04:39:04.006Z,7.83
2022-11-12T04:42:26.931Z,7.37
2022-11-12T04:45:29.572Z,7.47
2022-11-12T04:48:32.300Z,7.63
2022-11-12T04:51:52.584Z,7.43
2022-11-12T04:54:55.759Z,7.73
2022-11-12T04:58:00.937Z,7.27
2022-11-12T05:01:03.887Z,7.73
2022-11-12T05:04:06.747Z,7.27
2022-11-12T05:07:09.535Z,8.07
2022-11-12T05:10:12.283Z,8.03
2022-11-12T05:13:16.275Z,7.63
2022-11-12T05:16:18.909Z,7.70
2022-11-12T05:19:21.561Z,8.37
2022-11-12T05:22:42.515Z,7.83
2022-11-12T05:25:46.781Z,8.27
2022-11-12T05:28:50.729Z,7.77
2022-11-12T05:31:53.365Z,7.97
2022-11-12T05:34:55.937Z,7.97
2022-11-12T05:37:58.586Z,7.80
2022-11-12T05:41:01.249Z,7.13
2022-11-12T05:44:05.658Z,8.50
2022-11-12T05:47:08.491Z,8.37
2022-11-12T05:50:11.244Z,7.80
2022-11-12T05:53:13.842Z,8.07
2022-11-12T05:56:16.468Z,8.10
2022-11-12T05:59:20.431Z,7.10
2022-11-12T06:02:23.111Z,7.80
2022-11-12T06:05:25.786Z,8.23
2022-11-12T06:08:28.697Z,7.40
2022-11-12T06:11:31.566Z,7.50
2022-11-12T06:14:35.514Z,8.07
2022-11-12T06:17:38.162Z,8.20
2022-11-12T06:20:40.980Z,7.37
2022-11-12T06:23:43.604Z,6.97
2022-11-12T06:26:46.247Z,7.63
2022-11-12T06:29:50.278Z,7.37
2022-11-12T06:32:53.125Z,7.57
2022-11-12T06:36:02.809Z,7.63
2022-11-12T06:39:05.820Z,7.20
2022-11-12T06:42:08.443Z,7.93
2022-11-12T06:45:12.722Z,7.40
2022-11-12T06:48:15.337Z,7.33
2022-11-12T06:51:19.831Z,7.27
2022-11-12T06:54:22.532Z,7.00
2022-11-12T06:57:25.576Z,7.70
2022-11-12T07:00:29.649Z,7.53
2022-11-12T07:03:32.239Z,7.47
2022-11-12T07:06:35.478Z,7.67
2022-11-12T07:09:38.139Z,7.67
2022-11-12T07:12:40.751Z,7.47
2022-11-12T07:15:44.733Z,7.70
2022-11-12T07:18:48.192Z,7.20
2022-11-12T07:21:50.819Z,6.93
2022-11-12T07:24:53.731Z,7.73
2022-11-12T07:27:56.361Z,7.30
2022-11-12T07:31:01.989Z,7.97
2022-11-12T07:34:04.733Z,7.80
2022-11-12T07:37:07.386Z,8.47
2022-11-12T07:40:10.778Z,8.37
2022-11-12T07:43:13.382Z,8.17
2022-11-12T07:46:19.093Z,7.90
2022-11-12T07:49:21.712Z,8.57
2022-11-12T07:52:24.366Z,7.87
2022-11-12T07:55:27.004Z,7.33
2022-11-12T07:58:32.177Z,7.47
2022-11-12T08:01:37.372Z,7.30
2022-11-12T08:04:40.232Z,7.47
2022-11-12T08:07:42.913Z,7.23
2022-11-12T08:10:45.624Z,8.27
2022-11-12T08:13:48.806Z,7.63
2022-11-12T08:16:52.784Z,7.73
2022-11-12T08:19:55.804Z,7.47
2022-11-12T08:23:01.640Z,7.43
2022-11-12T08:26:06.919Z,7.77
2022-11-12T08:29:09.560Z,7.73
2022-11-12T08:32:13.565Z,6.70
2022-11-12T08:35:16.228Z,7.43
2022-11-12T08:38:19.037Z,6.63
2022-11-12T08:41:21.662Z,6.87
2022-11-12T08:44:24.334Z,7.10
2022-11-12T08:47:28.296Z,7.63
2022-11-12T08:50:31.793Z,7.10
2022-11-12T08:53:34.553Z,6.97
2022-11-12T08:56:37.152Z,7.03
2022-11-12T08:59:39.798Z,7.70
2022-11-12T09:02:43.793Z,7.07
2022-11-12T09:05:46.965Z,7.07
2022-11-12T09:08:49.582Z,6.60
2022-11-12T09:11:52.210Z,6.67
2022-11-12T09:14:59.569Z,7.93
2022-11-12T09:18:15.776Z,7.13
2022-11-12T09:21:21.554Z,6.20
2022-11-12T09:24:24.132Z,6.57
2022-11-12T09:27:27.986Z,5.73
2022-11-12T09:30:30.591Z,5.90
2022-11-12T09:33:35.309Z,5.67
2022-11-12T09:36:40.002Z,6.07
2022-11-12T09:39:42.793Z,6.67
2022-11-12T09:42:48.406Z,6.13
2022-11-12T09:46:13.626Z,6.13
2022-11-12T09:49:20.892Z,5.70
2022-11-12T09:52:27.878Z,5.73
2022-11-12T09:55:34.297Z,5.90
2022-11-12T09:58:38.197Z,5.43
2022-11-12T10:01:50.965Z,6.50
2022-11-12T10:05:22.447Z,5.73
2022-11-12T10:08:38.381Z,5.73
2022-11-12T10:12:14.191Z,6.33
2022-11-12T10:15:54.171Z,6.00
2022-11-12T10:19:11.480Z,5.97
2022-11-12T10:22:32.576Z,6.03
2022-11-12T10:25:36.311Z,6.30
2022-11-12T10:28:43.412Z,6.40
2022-11-12T10:31:46.238Z,5.27
2022-11-12T10:34:48.859Z,5.83
2022-11-12T10:37:58.430Z,5.60
2022-11-12T10:41:18.611Z,5.90
2022-11-12T10:44:27.567Z,5.40
2022-11-12T10:47:33.433Z,5.83
2022-11-12T10:50:40.952Z,5.13
2022-11-12T10:53:44.891Z,5.83
2022-11-12T10:56:55.034Z,5.70
2022-11-12T11:00:10.260Z,6.00
2022-11-12T11:03:20.589Z,5.90
2022-11-12T11:06:26.842Z,6.03
2022-11-12T11:09:31.467Z,5.53
2022-11-12T11:12:35.375Z,5.50
2022-11-12T11:15:40.287Z,5.40
2022-11-12T11:18:48.380Z,5.60
2022-11-12T11:22:04.117Z,6.17
2022-11-12T11:25:20.535Z,6.00
2022-11-12T11:28:39.334Z,6.47
2022-11-12T11:31:50.434Z,6.73
2022-11-12T11:35:07.366Z,6.90
2022-11-12T11:38:22.145Z,6.20
2022-11-12T11:41:49.884Z,6.07
2022-11-12T11:45:02.362Z,5.93
2022-11-12T11:48:13.891Z,6.13
2022-11-12T11:51:32.665Z,6.47
2022-11-12T11:54:51.193Z,6.90
2022-11-12T11:58:06.227Z,6.00
2022-11-12T12:01:19.564Z,7.43
2022-11-12T12:04:43.629Z,7.07
2022-11-12T12:07:55.972Z,7.20
2022-11-12T12:11:09.106Z,7.23
2022-11-12T12:14:29.285Z,7.40
2022-11-12T12:17:48.838Z,6.10
2022-11-12T12:20:59.645Z,6.57
2022-11-12T12:24:06.891Z,6.93
2022-11-12T12:27:13.461Z,7.07
2022-11-12T12:30:21.098Z,6.83
2022-11-12T12:33:30.395Z,9.67
2022-11-12T12:36:37.545Z,7.53
2022-11-12T12:39:48.945Z,9.77
2022-11-12T12:42:57.528Z,7.27
2022-11-12T12:46:02.937Z,6.63
2022-11-12T12:49:08.204Z,6.57
2022-11-12T12:52:13.672Z,7.23
2022-11-12T12:55:35.090Z,6.30
2022-11-12T12:58:45.339Z,5.63
2022-11-12T13:01:57.350Z,5.90
2022-11-12T13:04:59.965Z,6.63
2022-11-12T13:08:06.199Z,6.47
2022-11-12T13:11:09.254Z,6.50
2022-11-12T13:14:45.000Z,5.77
2022-11-12T13:17:52.880Z,6.37
2022-11-12T13:21:12.867Z,5.50
2022-11-12T13:24:15.463Z,5.63
2022-11-12T13:27:58.749Z,5.23
2022-11-12T13:31:04.626Z,5.10
2022-11-12T13:34:14.754Z,5.80
2022-11-12T13:37:21.805Z,5.30
2022-11-12T13:40:44.358Z,5.63
2022-11-12T13:43:48.223Z,6.73
2022-11-12T13:46:53.632Z,6.03
2022-11-12T13:49:59.549Z,5.73
2022-11-12T13:53:02.764Z,6.53
2022-11-12T13:56:05.499Z,6.17
2022-11-12T13:59:15.846Z,6.47
2022-11-12T14:02:24.788Z,6.30
2022-11-12T14:05:30.006Z,5.97
2022-11-12T14:08:56.132Z,5.87
2022-11-12T14:12:17.381Z,6.30
2022-11-12T14:15:32.361Z,5.37
2022-11-12T14:18:46.653Z,6.27
2022-11-12T14:22:03.361Z,6.00
2022-11-12T14:25:16.592Z,6.30
2022-11-12T14:28:28.710Z,6.07
2022-11-12T14:31:31.878Z,5.60
2022-11-12T14:34:35.956Z,5.00
2022-11-12T14:37:43.665Z,5.30
2022-11-12T14:40:51.357Z,5.90
2022-11-12T14:44:11.418Z,5.97
2022-11-12T14:47:18.952Z,5.10
2022-11-12T14:50:28.524Z,5.70
2022-11-12T14:53:33.920Z,4.40
2022-11-12T14:56:40.588Z,5.27
2022-11-12T14:59:43.193Z,4.60
2022-11-12T15:02:55.603Z,4.93
2022-11-12T15:06:11.586Z,4.93
2022-11-12T15:09:18.650Z,5.73
2022-11-12T15:12:22.675Z,5.47
2022-11-12T15:15:25.291Z,4.80
2022-11-12T15:18:30.336Z,4.10
2022-11-12T15:21:35.013Z,4.70
2022-11-12T15:24:38.953Z,4.80
2022-11-12T15:27:42.958Z,4.90
2022-11-12T15:31:01.493Z,5.33
2022-11-12T15:34:27.792Z,4.90
2022-11-12T15:37:36.989Z,4.83
2022-11-12T15:40:46.943Z,4.23
2022-11-12T15:43:49.577Z,4.87
2022-11-12T15:46:53.348Z,4.63
2022-11-12T15:49:58.715Z,5.40
2022-11-12T15:53:02.715Z,5.90
2022-11-12T15:56:09.494Z,6.30
2022-11-12T15:59:16.274Z,6.47
2022-11-12T16:02:18.958Z,7.17
2022-11-12T16:05:21.561Z,7.57
2022-11-12T16:08:25.545Z,6.57
2022-11-12T16:11:37.300Z,6.90
2022-11-12T16:14:40.157Z,7.10
2022-11-12T16:17:43.023Z,6.70
2022-11-12T16:20:46.965Z,7.77
2022-11-12T16:23:50.926Z,7.63
2022-11-12T16:26:53.913Z,7.93
2022-11-12T16:29:56.525Z,8.20
2022-11-12T16:33:00.182Z,8.30
2022-11-12T16:36:02.882Z,8.33
2022-11-12T16:39:07.217Z,9.07
2022-11-12T16:42:11.103Z,11.27
2022-11-12T16:45:14.234Z,11.63
2022-11-12T16:48:20.105Z,12.00
2022-11-12T16:51:23.900Z,11.47
2022-11-12T16:54:27.897Z,12.20
2022-11-12T16:57:30.501Z,12.43
2022-11-12T17:00:33.264Z,11.90
2022-11-12T17:03:35.883Z,12.60
2022-11-12T17:06:40.837Z,12.10
2022-11-12T17:09:46.270Z,11.73
2022-11-12T17:12:49.437Z,12.33
2022-11-12T17:15:58.821Z,11.10
2022-11-12T17:19:02.505Z,9.33
2022-11-12T17:22:05.127Z,8.53
2022-11-12T17:25:09.965Z,7.70
2022-11-12T17:28:12.726Z,7.80
2022-11-12T17:31:17.430Z,7.63
2022-11-12T17:34:20.022Z,8.43
2022-11-12T17:37:22.669Z,9.07
2022-11-12T17:40:26.641Z,7.90
2022-11-12T17:43:29.814Z,8.07
2022-11-12T17:46:33.151Z,6.73
2022-11-12T17:49:35.773Z,6.90
2022-11-12T17:52:38.366Z,6.47
2022-11-12T17:55:42.477Z,6.10
2022-11-12T17:58:47.089Z,6.17
2022-11-12T18:01:49.674Z,6.30
2022-11-12T18:04:52.291Z,6.00
2022-11-12T18:07:54.905Z,6.60
2022-11-12T18:10:58.994Z,6.37
2022-11-12T18:14:07.508Z,6.63
2022-11-12T18:17:10.345Z,6.93
2022-11-12T18:20:13.228Z,7.17
2022-11-12T18:23:15.839Z,6.37
2022-11-12T18:26:20.788Z,6.03
2022-11-12T18:29:23.393Z,6.23
2022-11-12T18:32:26.003Z,6.20
2022-11-12T18:35:30.053Z,6.20
2022-11-12T18:38:33.963Z,6.70
2022-11-12T18:41:38.023Z,6.13
2022-11-12T18:44:40.685Z,6.33
2022-11-12T18:47:43.369Z,6.43
2022-11-12T18:50:46.014Z,6.20
2022-11-12T18:53:48.898Z,6.63
2022-11-12T18:56:52.852Z,7.00
2022-11-12T18:59:55.864Z,6.97
2022-11-12T19:02:58.502Z,8.90
2022-11-12T19:06:02.850Z,9.33
2022-11-12T19:09:05.890Z,11.73
2022-11-12T19:12:09.906Z,12.43
2022-11-12T19:15:12.842Z,9.77
2022-11-12T19:18:15.472Z,9.17
2022-11-12T19:21:20.137Z,7.80
2022-11-12T19:24:22.736Z,7.50
2022-11-12T19:27:26.721Z,7.77
2022-11-12T19:30:29.338Z,8.20
2022-11-12T19:33:32.142Z,6.87
2022-11-12T19:36:34.758Z,7.53
2022-11-12T19:39:37.405Z,7.80
2022-11-12T19:42:41.387Z,7.30
2022-11-12T19:45:43.992Z,7.07
2022-11-12T19:48:46.754Z,7.37
2022-11-12T19:51:49.397Z,7.63
2022-11-12T19:54:52.040Z,7.60
2022-11-12T19:57:56.089Z,7.57
2022-11-12T20:01:04.791Z,7.17
2022-11-12T20:04:07.505Z,7.07
2022-11-12T20:07:10.457Z,7.10
2022-11-12T20:10:13.138Z,7.87
2022-11-12T20:13:17.247Z,8.43
2022-11-12T20:16:25.179Z,8.20
2022-11-12T20:19:28.310Z,7.90
2022-11-12T20:22:32.347Z,8.27
2022-11-12T20:25:35.346Z,7.77
2022-11-12T20:28:40.753Z,7.40
2022-11-12T20:31:43.389Z,8.00
2022-11-12T20:34:46.060Z,7.33
2022-11-12T20:37:49.994Z,7.57
2022-11-12T20:40:58.578Z,7.80
2022-11-12T20:44:02.836Z,9.70
2022-11-12T20:47:05.552Z,8.07
2022-11-12T20:50:08.551Z,7.97
2022-11-12T20:53:11.174Z,8.20
2022-11-12T20:56:15.360Z,8.50
2022-11-12T20:59:19.345Z,8.53
2022-11-12T21:02:21.926Z,8.37
2022-11-12T21:05:24.732Z,9.60
2022-11-12T21:08:29.033Z,11.77
2022-11-12T21:11:31.909Z,12.53
2022-11-12T21:14:35.890Z,12.60
2022-11-12T21:17:38.526Z,20.40
2022-11-12T21:20:41.164Z,12.50
2022-11-12T21:23:45.489Z,11.00
2022-11-12T21:26:49.437Z,10.63
2022-11-12T21:29:53.423Z,9.17
2022-11-12T21:32:56.049Z,9.50
2022-11-12T21:35:59.452Z,9.33
2022-11-12T21:39:02.442Z,8.93
2022-11-12T21:42:05.286Z,9.13
2022-11-12T21:45:11.032Z,9.70
2022-11-12T21:48:13.664Z,9.37
2022-11-12T21:51:17.671Z,9.63
2022-11-12T21:54:20.295Z,9.30
2022-11-12T21:57:22.947Z,9.27
2022-11-12T22:00:41.649Z,9.37
2022-11-12T22:03:45.541Z,9.23
2022-11-12T22:06:48.272Z,9.53
2022-11-12T22:09:56.322Z,9.37
2022-11-12T22:13:27.835Z,10.00
2022-11-12T22:16:26.254Z,9.17
2022-11-12T22:19:28.929Z,8.70
2022-11-12T22:22:31.565Z,9.30
2022-11-12T22:25:34.560Z,9.17
2022-11-12T22:28:37.760Z,8.80
2022-11-12T22:31:41.739Z,8.30
2022-11-12T22:34:48.403Z,9.30
2022-11-12T22:37:52.128Z,8.93
2022-11-12T22:41:01.838Z,9.00
2022-11-12T22:44:04.538Z,8.83
2022-11-12T22:47:08.535Z,8.90
2022-11-12T22:50:11.338Z,8.63
2022-11-12T22:53:13.924Z,9.00
2022-11-12T22:56:17.941Z,8.67
2022-11-12T22:59:20.635Z,8.80
2022-11-12T23:02:24.626Z,8.77
2022-11-12T23:05:27.278Z,9.67
2022-11-12T23:08:30.451Z,10.63
2022-11-12T23:11:33.249Z,10.53
2022-11-12T23:14:36.158Z,9.70
2022-11-12T23:17:40.114Z,9.93
2022-11-12T23:20:42.738Z,10.17
2022-11-12T23:23:45.373Z,9.93
2022-11-12T23:26:48.040Z,9.47
2022-11-12T23:29:50.635Z,8.93
2022-11-12T23:32:54.606Z,8.77
2022-11-12T23:36:05.076Z,8.80
2022-11-12T23:39:07.902Z,8.50
2022-11-12T23:42:10.553Z,8.63
2022-11-12T23:45:13.263Z,8.20
2022-11-12T23:48:17.307Z,8.27
2022-11-12T23:51:21.944Z,8.60
2022-11-12T23:54:24.548Z,8.20
2022-11-12T23:57:27.153Z,8.23
